F/V Roger Christian3 — FUFL — position and weather

sailwx.info

Track history (hours):
 
Tides and Currents Weather Stations Pressure Air Temp Water Temp Dewpoint Dewpoint Depression Visibility Wind Speed Wind Dir Waves Ship Positions

F/V Roger Christian3

Last reported at 2017-Oct-30 13:33 UTC. Time now 2017-Nov-17 21:07 UTC.
Position N 43°22' E 003°59'.
Warning: this ship's position is 18 days out of date.

Length 24 m; draft 4 m.

Type: Fishing. MMSI: 228173800.

Date/timePositionNaut miles runAvg speedWind from/ knotsBaromVisibWave heightAir tempDewpointWater temp
2017-Oct-30 13:33N 43°22' E 003°59'0 4.3
2017-Oct-30 13:28N 43°22' E 003°59'4 2.8
2017-Oct-30 11:54N 43°19' E 004°05'2 4.3
2017-Oct-30 11:30N 43°18' E 004°06'2 4.4
2017-Oct-30 11:00N 43°17' E 004°09'2 4.3
2017-Oct-30 10:30N 43°17' E 004°12'2 4.2
2017-Oct-30 10:00N 43°16' E 004°15'2 4.3
2017-Oct-30 09:30N 43°15' E 004°17'1 2.6
2017-Oct-30 08:59N 43°14' E 004°19'1 3.1
2017-Oct-30 08:30N 43°13' E 004°20'1 2.0
2017-Oct-30 08:00N 43°13' E 004°21'1 2.5
2017-Oct-30 07:30N 43°14' E 004°22'2 4.3
2017-Oct-30 07:00N 43°15' E 004°19'2 4.3
2017-Oct-30 06:30N 43°16' E 004°16'2 4.4
2017-Oct-30 06:00N 43°17' E 004°14'2 4.4
2017-Oct-30 05:27N 43°18' E 004°11'2 4.4
2017-Oct-30 04:53N 43°19' E 004°08'  
2017-Oct-26 06:10N 43°13' E 004°21'1 4.4
2017-Oct-26 05:51N 43°14' E 004°19'2 4.4
2017-Oct-26 05:30N 43°14' E 004°17'5 4.3
2017-Oct-26 04:22N 43°16' E 004°11'2 4.3
2017-Oct-26 03:58N 43°17' E 004°09'2 4.4
2017-Oct-26 03:29N 43°18' E 004°06'2 4.4
2017-Oct-26 03:00N 43°19' E 004°03'2 4.5
2017-Oct-26 02:30N 43°20' E 004°01'2 4.5
2017-Oct-26 02:00N 43°20' E 003°58'4 7.3
2017-Oct-26 01:27N 43°22' E 003°52'511.1
2017-Oct-26 01:00N 43°23' E 003°46'3 5.8
2017-Oct-26 00:27N 43°24' E 003°42'0 0.0
2017-Oct-26 00:00N 43°24' E 003°42'0 0.0
2017-Oct-25 22:35N 43°24' E 003°42'0 0.0
2017-Oct-25 22:27N 43°24' E 003°42'0 0.0
2017-Oct-25 21:44N 43°24' E 003°42'0 0.0
2017-Oct-25 21:27N 43°24' E 003°42'0 0.0
2017-Oct-25 20:57N 43°24' E 003°42'0 0.0
2017-Oct-25 20:24N 43°24' E 003°42'0 0.0
2017-Oct-25 20:00N 43°24' E 003°42'0 0.0
2017-Oct-25 19:30N 43°24' E 003°42'0 0.0
2017-Oct-25 19:00N 43°24' E 003°42'0 0.0
2017-Oct-25 18:30N 43°24' E 003°42'0 0.0
2017-Oct-25 18:00N 43°24' E 003°42'0 0.0
2017-Oct-25 17:30N 43°24' E 003°42'0 0.0
2017-Oct-25 17:00N 43°24' E 003°42'0 0.0
2017-Oct-25 16:30N 43°24' E 003°42'0 0.0
2017-Oct-25 16:00N 43°24' E 003°42'0 0.2
2017-Oct-25 15:30N 43°24' E 003°42'0 0.0
2017-Oct-25 15:00N 43°24' E 003°42'0 0.1
2017-Oct-25 14:30N 43°24' E 003°42'4 7.9
2017-Oct-25 14:00N 43°23' E 003°47'6 4.8
2017-Oct-25 12:44N 43°22' E 003°55'1 4.4
2017-Oct-25 12:30N 43°22' E 003°57'2 4.4
2017-Oct-25 11:57N 43°22' E 004°00'2 4.4
2017-Oct-25 11:30N 43°21' E 004°03'2 4.2
2017-Oct-25 11:00N 43°19' E 004°04'1 2.7
2017-Oct-25 10:30N 43°20' E 004°02'2 4.4
2017-Oct-25 10:00N 43°19' E 004°05'2 4.4
2017-Oct-25 09:30N 43°18' E 004°08'2 4.4
2017-Oct-25 09:00N 43°17' E 004°10'2 4.5
2017-Oct-25 08:30N 43°16' E 004°13'2 4.4
2017-Oct-25 08:00N 43°15' E 004°16'2 4.5
2017-Oct-25 07:30N 43°14' E 004°19'2 3.8
2017-Oct-25 07:00N 43°14' E 004°21'1 2.4
2017-Oct-25 06:29N 43°14' E 004°20'2 4.4
2017-Oct-25 05:57N 43°15' E 004°17'2 4.3
2017-Oct-25 05:24N 43°16' E 004°14'2 4.3
2017-Oct-25 05:00N 43°17' E 004°12'3 4.3
2017-Oct-25 04:24N 43°18' E 004°09'4 4.3
2017-Oct-25 03:29N 43°20' E 004°03'8 0.7
2017-Oct-24 14:50N 43°17' E 003°53'411.5
2017-Oct-24 14:30N 43°15' E 003°57'3 6.2
2017-Oct-24 13:59N 43°13' E 004°00'2 4.4
2017-Oct-24 13:30N 43°12' E 004°03'2 4.3
2017-Oct-24 12:59N 43°10' E 004°05'2 4.3
2017-Oct-24 12:29N 43°09' E 004°08'3 4.3
2017-Oct-24 11:54N 43°07' E 004°10'2 4.6
2017-Oct-24 11:30N 43°06' E 004°12'8 3.7
2017-Oct-24 09:13N 43°02' E 004°22'1 4.1
2017-Oct-24 08:58N 43°02' E 004°24'2 4.2
2017-Oct-24 08:30N 43°02' E 004°26'2 4.1
2017-Oct-24 08:00N 43°02' E 004°29'2 4.2
2017-Oct-24 07:30N 43°01' E 004°32'1 2.8
2017-Oct-24 07:00N 43°00' E 004°30'1 2.5
2017-Oct-24 06:24N 43°01' E 004°29'2 4.4
2017-Oct-24 05:54N 43°02' E 004°26'2 4.4
2017-Oct-24 05:30N 43°03' E 004°24'  
Track history (hours):
 
Tides and Currents Weather Stations Pressure Air Temp Water Temp Dewpoint Dewpoint Depression Visibility Wind Speed Wind Dir Waves Ship Positions

F/V Roger Christian3

Last reported at 2017-Oct-30 13:33 UTC. Time now 2017-Nov-17 21:07 UTC.
Position N 43°22' E 003°59'.
Warning: this ship's position is 18 days out of date.

Length 24 m; draft 4 m.

Type: Fishing. MMSI: 228173800.

Date/timePositionNaut miles runAvg speedWind from/ knotsBaromVisibWave heightAir tempDewpointWater temp
2017-Oct-30 13:33N 43°22' E 003°59'0 4.3
2017-Oct-30 13:28N 43°22' E 003°59'4 2.8
2017-Oct-30 11:54N 43°19' E 004°05'2 4.3
2017-Oct-30 11:30N 43°18' E 004°06'2 4.4
2017-Oct-30 11:00N 43°17' E 004°09'2 4.3
2017-Oct-30 10:30N 43°17' E 004°12'2 4.2
2017-Oct-30 10:00N 43°16' E 004°15'2 4.3
2017-Oct-30 09:30N 43°15' E 004°17'1 2.6
2017-Oct-30 08:59N 43°14' E 004°19'1 3.1
2017-Oct-30 08:30N 43°13' E 004°20'1 2.0
2017-Oct-30 08:00N 43°13' E 004°21'1 2.5
2017-Oct-30 07:30N 43°14' E 004°22'2 4.3
2017-Oct-30 07:00N 43°15' E 004°19'2 4.3
2017-Oct-30 06:30N 43°16' E 004°16'2 4.4
2017-Oct-30 06:00N 43°17' E 004°14'2 4.4
2017-Oct-30 05:27N 43°18' E 004°11'2 4.4
2017-Oct-30 04:53N 43°19' E 004°08'  
2017-Oct-26 06:10N 43°13' E 004°21'1 4.4
2017-Oct-26 05:51N 43°14' E 004°19'2 4.4
2017-Oct-26 05:30N 43°14' E 004°17'5 4.3
2017-Oct-26 04:22N 43°16' E 004°11'2 4.3
2017-Oct-26 03:58N 43°17' E 004°09'2 4.4
2017-Oct-26 03:29N 43°18' E 004°06'2 4.4
2017-Oct-26 03:00N 43°19' E 004°03'2 4.5
2017-Oct-26 02:30N 43°20' E 004°01'2 4.5
2017-Oct-26 02:00N 43°20' E 003°58'4 7.3
2017-Oct-26 01:27N 43°22' E 003°52'511.1
2017-Oct-26 01:00N 43°23' E 003°46'3 5.8
2017-Oct-26 00:27N 43°24' E 003°42'0 0.0
2017-Oct-26 00:00N 43°24' E 003°42'0 0.0
2017-Oct-25 22:35N 43°24' E 003°42'0 0.0
2017-Oct-25 22:27N 43°24' E 003°42'0 0.0
2017-Oct-25 21:44N 43°24' E 003°42'0 0.0
2017-Oct-25 21:27N 43°24' E 003°42'0 0.0
2017-Oct-25 20:57N 43°24' E 003°42'0 0.0
2017-Oct-25 20:24N 43°24' E 003°42'0 0.0
2017-Oct-25 20:00N 43°24' E 003°42'0 0.0
2017-Oct-25 19:30N 43°24' E 003°42'0 0.0
2017-Oct-25 19:00N 43°24' E 003°42'0 0.0
2017-Oct-25 18:30N 43°24' E 003°42'0 0.0
2017-Oct-25 18:00N 43°24' E 003°42'0 0.0
2017-Oct-25 17:30N 43°24' E 003°42'0 0.0
2017-Oct-25 17:00N 43°24' E 003°42'0 0.0
2017-Oct-25 16:30N 43°24' E 003°42'0 0.0
2017-Oct-25 16:00N 43°24' E 003°42'0 0.2
2017-Oct-25 15:30N 43°24' E 003°42'0 0.0
2017-Oct-25 15:00N 43°24' E 003°42'0 0.1
2017-Oct-25 14:30N 43°24' E 003°42'4 7.9
2017-Oct-25 14:00N 43°23' E 003°47'6 4.8
2017-Oct-25 12:44N 43°22' E 003°55'1 4.4
2017-Oct-25 12:30N 43°22' E 003°57'2 4.4
2017-Oct-25 11:57N 43°22' E 004°00'2 4.4
2017-Oct-25 11:30N 43°21' E 004°03'2 4.2
2017-Oct-25 11:00N 43°19' E 004°04'1 2.7
2017-Oct-25 10:30N 43°20' E 004°02'2 4.4
2017-Oct-25 10:00N 43°19' E 004°05'2 4.4
2017-Oct-25 09:30N 43°18' E 004°08'2 4.4
2017-Oct-25 09:00N 43°17' E 004°10'2 4.5
2017-Oct-25 08:30N 43°16' E 004°13'2 4.4
2017-Oct-25 08:00N 43°15' E 004°16'2 4.5
2017-Oct-25 07:30N 43°14' E 004°19'2 3.8
2017-Oct-25 07:00N 43°14' E 004°21'1 2.4
2017-Oct-25 06:29N 43°14' E 004°20'2 4.4
2017-Oct-25 05:57N 43°15' E 004°17'2 4.3
2017-Oct-25 05:24N 43°16' E 004°14'2 4.3
2017-Oct-25 05:00N 43°17' E 004°12'3 4.3
2017-Oct-25 04:24N 43°18' E 004°09'4 4.3
2017-Oct-25 03:29N 43°20' E 004°03'8 0.7
2017-Oct-24 14:50N 43°17' E 003°53'411.5
2017-Oct-24 14:30N 43°15' E 003°57'3 6.2
2017-Oct-24 13:59N 43°13' E 004°00'2 4.4
2017-Oct-24 13:30N 43°12' E 004°03'2 4.3
2017-Oct-24 12:59N 43°10' E 004°05'2 4.3
2017-Oct-24 12:29N 43°09' E 004°08'3 4.3
2017-Oct-24 11:54N 43°07' E 004°10'2 4.6
2017-Oct-24 11:30N 43°06' E 004°12'8 3.7
2017-Oct-24 09:13N 43°02' E 004°22'1 4.1
2017-Oct-24 08:58N 43°02' E 004°24'2 4.2
2017-Oct-24 08:30N 43°02' E 004°26'2 4.1
2017-Oct-24 08:00N 43°02' E 004°29'2 4.2
2017-Oct-24 07:30N 43°01' E 004°32'1 2.8
2017-Oct-24 07:00N 43°00' E 004°30'1 2.5
2017-Oct-24 06:24N 43°01' E 004°29'2 4.4
2017-Oct-24 05:54N 43°02' E 004°26'2 4.4
2017-Oct-24 05:30N 43°03' E 004°24'  

Dump ship's entire track history